createdAt,value
2022-09-22T00:04:08.942Z,4.30
2022-09-22T00:09:13.809Z,5.10
2022-09-22T00:14:17.949Z,9.52
2022-09-22T00:19:21.545Z,6.13
2022-09-22T00:24:25.929Z,4.93
2022-09-22T00:29:29.057Z,5.28
2022-09-22T00:34:31.509Z,7.03
2022-09-22T00:39:35.336Z,5.32
2022-09-22T00:44:39.055Z,6.35
2022-09-22T00:54:45.196Z,6.15
2022-09-22T00:59:50.522Z,10.43
2022-09-22T01:04:53.258Z,7.90
2022-09-22T01:09:57.523Z,10.37
2022-09-22T01:15:06.220Z,10.18
2022-09-22T01:20:30.406Z,8.13
2022-09-22T01:25:44.594Z,10.20
2022-09-22T01:35:58.679Z,7.75
2022-09-22T01:41:03.310Z,5.50
2022-09-22T01:46:10.314Z,12.60
2022-09-22T01:51:16.579Z,6.32
2022-09-22T01:56:20.982Z,9.75
2022-09-22T02:01:25.578Z,9.05
2022-09-22T02:06:31.653Z,9.27
2022-09-22T02:11:34.466Z,7.88
2022-09-22T02:16:37.299Z,10.80
2022-09-22T02:21:41.861Z,9.47
2022-09-22T02:26:44.327Z,11.35
2022-09-22T02:31:47.909Z,10.70
2022-09-22T02:36:57.702Z,13.50
2022-09-22T02:42:09.784Z,12.27
2022-09-22T02:47:14.774Z,13.50
2022-09-22T02:52:20.168Z,11.40
2022-09-22T02:57:22.859Z,10.90
2022-09-22T03:02:25.374Z,10.88
2022-09-22T03:07:29.192Z,14.05
2022-09-22T03:17:34.197Z,11.55
2022-09-22T03:22:38.160Z,13.77
2022-09-22T03:27:40.586Z,17.42
2022-09-22T03:32:43.003Z,12.68
2022-09-22T03:37:47.497Z,21.17
2022-09-22T03:42:49.945Z,10.98
2022-09-22T03:47:54.296Z,16.13
2022-09-22T03:52:59.295Z,17.70
2022-09-22T03:58:01.664Z,14.13
2022-09-22T04:03:04.073Z,17.05
2022-09-22T04:08:07.783Z,15.60
2022-09-22T04:18:14.459Z,12.68
2022-09-22T04:23:19.276Z,12.93
2022-09-22T04:28:21.751Z,11.85
2022-09-22T04:33:25.608Z,14.73
2022-09-22T04:38:29.376Z,13.55
2022-09-22T04:48:33.985Z,14.57
2022-09-22T04:53:37.722Z,15.80
2022-09-22T05:03:42.367Z,16.77
2022-09-22T05:08:46.240Z,18.55
2022-09-22T05:13:49.250Z,20.95
2022-09-22T05:18:51.635Z,18.27
2022-09-22T05:23:56.056Z,20.10
2022-09-22T05:28:59.485Z,16.02
2022-09-22T05:34:01.906Z,17.23
2022-09-22T05:39:05.908Z,20.55
2022-09-22T05:44:08.418Z,25.15
2022-09-22T05:49:10.908Z,19.50
2022-09-22T05:54:15.131Z,19.17
2022-09-22T05:59:18.522Z,20.50
2022-09-22T06:04:20.861Z,23.83
2022-09-22T06:09:24.689Z,21.42
2022-09-22T06:14:27.123Z,22.60
2022-09-22T06:19:29.761Z,18.35
2022-09-22T06:24:33.417Z,25.85
2022-09-22T06:34:38.942Z,17.27
2022-09-22T06:39:42.639Z,12.25
2022-09-22T06:44:45.643Z,12.27
2022-09-22T06:49:47.997Z,11.30
2022-09-22T06:54:58.572Z,10.73
2022-09-22T07:00:01.956Z,9.02
2022-09-22T07:10:10.506Z,7.97
2022-09-22T07:15:13.910Z,11.13
2022-09-22T07:20:17.751Z,8.02
2022-09-22T07:25:21.549Z,9.98
2022-09-22T07:30:24.117Z,8.23
2022-09-22T07:35:28.696Z,8.65
2022-09-22T07:40:32.659Z,8.02
2022-09-22T07:45:37.053Z,7.95
2022-09-22T07:50:39.541Z,8.45
2022-09-22T07:55:43.297Z,10.07
2022-09-22T08:00:45.701Z,11.32
2022-09-22T08:05:53.464Z,10.70
2022-09-22T08:11:03.840Z,12.38
2022-09-22T08:16:06.663Z,11.32
2022-09-22T08:21:09.079Z,8.35
2022-09-22T08:26:12.838Z,10.18
2022-09-22T08:31:17.685Z,9.52
2022-09-22T08:36:20.744Z,8.80
2022-09-22T08:46:29.435Z,11.20
2022-09-22T08:51:51.986Z,11.50
2022-09-22T08:57:22.227Z,11.05
2022-09-22T09:02:38.604Z,6.75
2022-09-22T09:07:45.729Z,6.85
2022-09-22T09:12:56.313Z,6.63
2022-09-22T09:18:02.769Z,8.32
2022-09-22T09:23:07.226Z,10.80
2022-09-22T09:28:13.816Z,7.88
2022-09-22T09:33:23.625Z,6.00
2022-09-22T09:38:27.857Z,6.35
2022-09-22T09:43:30.260Z,6.22
2022-09-22T09:48:36.813Z,6.35
2022-09-22T09:53:42.200Z,6.60
2022-09-22T09:59:12.787Z,8.00
2022-09-22T10:04:20.464Z,6.65
2022-09-22T10:09:28.005Z,6.88
2022-09-22T10:14:31.240Z,4.47
2022-09-22T10:19:35.026Z,7.07
2022-09-22T10:24:37.496Z,6.65
2022-09-22T10:29:42.166Z,4.80
2022-09-22T10:34:46.793Z,6.63
2022-09-22T10:39:50.263Z,3.97
2022-09-22T10:44:53.410Z,4.97
2022-09-22T10:50:17.959Z,3.97
2022-09-22T10:55:25.752Z,2.88
2022-09-22T11:00:28.935Z,6.80
2022-09-22T11:05:56.608Z,4.72
2022-09-22T11:11:21.392Z,4.18
2022-09-22T11:16:30.188Z,3.20
2022-09-22T11:21:42.073Z,4.30
2022-09-22T11:26:47.499Z,4.93
2022-09-22T11:31:54.961Z,5.47
2022-09-22T11:37:01.806Z,5.10
2022-09-22T11:42:09.358Z,5.00
2022-09-22T11:47:28.310Z,4.43
2022-09-22T11:52:43.112Z,2.03
2022-09-22T11:57:47.756Z,2.58
2022-09-22T12:02:54.895Z,4.63
2022-09-22T12:08:01.740Z,4.25
2022-09-22T12:13:05.191Z,3.58
2022-09-22T12:18:11.007Z,4.20
2022-09-22T12:23:34.105Z,4.13
2022-09-22T12:28:39.683Z,3.90
2022-09-22T12:33:47.533Z,4.60
2022-09-22T12:38:51.928Z,2.00
2022-09-22T12:43:54.373Z,2.55
2022-09-22T12:48:56.827Z,4.75
2022-09-22T12:54:17.900Z,3.28
2022-09-22T12:59:39.052Z,2.97
2022-09-22T13:04:42.794Z,3.08
2022-09-22T13:09:45.185Z,3.17
2022-09-22T13:15:08.622Z,2.15
2022-09-22T13:20:19.669Z,3.92
2022-09-22T13:25:25.291Z,3.42
2022-09-22T13:30:27.688Z,3.45
2022-09-22T13:35:32.749Z,2.88
2022-09-22T13:40:35.542Z,2.53
2022-09-22T13:45:39.851Z,2.70
2022-09-22T13:50:51.450Z,3.13
2022-09-22T13:55:54.073Z,6.93
2022-09-22T14:01:14.401Z,1.70
2022-09-22T14:06:19.459Z,2.08
2022-09-22T14:11:23.097Z,3.70
2022-09-22T14:16:27.425Z,2.28
2022-09-22T14:21:31.425Z,3.80
2022-09-22T14:26:37.564Z,1.80
2022-09-22T14:31:40.447Z,2.97
2022-09-22T14:41:52.498Z,4.60
2022-09-22T14:46:56.199Z,1.73
2022-09-22T14:52:00.490Z,2.38
2022-09-22T14:57:07.223Z,3.17
2022-09-22T15:02:29.797Z,2.25
2022-09-22T15:07:33.641Z,2.00
2022-09-22T15:12:39.270Z,4.35
2022-09-22T15:17:59.587Z,3.13
2022-09-22T15:23:03.217Z,2.90
2022-09-22T15:28:11.149Z,4.45
2022-09-22T15:33:14.613Z,11.00
2022-09-22T15:38:19.206Z,2.95
2022-09-22T15:43:24.616Z,1.83
2022-09-22T15:48:28.662Z,6.35
2022-09-22T15:53:31.877Z,4.53
2022-09-22T15:58:37.111Z,5.72
2022-09-22T16:03:41.627Z,4.82
2022-09-22T16:08:46.140Z,4.15
2022-09-22T16:13:50.929Z,3.90
2022-09-22T16:18:53.390Z,3.42
2022-09-22T16:23:58.679Z,2.28
2022-09-22T16:29:06.792Z,2.65
2022-09-22T16:34:10.691Z,3.08
2022-09-22T16:39:13.089Z,3.80
2022-09-22T16:44:16.878Z,4.30
2022-09-22T16:49:20.384Z,5.43
2022-09-22T16:54:23.075Z,4.70
2022-09-22T16:59:27.840Z,3.92
2022-09-22T17:04:32.204Z,4.18
2022-09-22T17:09:34.776Z,4.97
2022-09-22T17:14:43.444Z,4.68
2022-09-22T17:19:48.088Z,4.10
2022-09-22T17:24:50.527Z,3.75
2022-09-22T17:29:54.429Z,4.63
2022-09-22T17:34:56.790Z,3.47
2022-09-22T17:39:59.326Z,3.22
2022-09-22T17:45:03.458Z,4.73
2022-09-22T17:50:24.167Z,4.43
2022-09-22T17:55:26.677Z,5.55
2022-09-22T18:00:30.712Z,6.57
2022-09-22T18:05:33.212Z,4.80
2022-09-22T18:10:36.732Z,3.85
2022-09-22T18:20:42.854Z,5.43
2022-09-22T18:25:45.815Z,3.50
2022-09-22T18:30:48.233Z,6.35
2022-09-22T18:35:52.049Z,4.63
2022-09-22T18:40:54.458Z,3.72
2022-09-22T18:45:57.033Z,3.22
2022-09-22T18:51:06.357Z,11.33
2022-09-22T18:56:10.286Z,5.32
2022-09-22T19:01:14.426Z,5.10
2022-09-22T19:06:18.257Z,5.63
2022-09-22T19:11:20.763Z,5.15
2022-09-22T19:16:24.324Z,5.28
2022-09-22T19:26:30.325Z,5.05
2022-09-22T19:31:33.967Z,5.80
2022-09-22T19:36:36.778Z,6.53
2022-09-22T19:41:42.365Z,5.13
2022-09-22T19:46:45.374Z,6.68
2022-09-22T19:51:47.978Z,7.40
2022-09-22T19:56:51.761Z,7.07
2022-09-22T20:01:55.066Z,6.28
2022-09-22T20:06:57.637Z,5.68
2022-09-22T20:12:01.812Z,6.22
2022-09-22T20:17:06.144Z,7.60
2022-09-22T20:22:25.134Z,7.70
2022-09-22T20:27:31.025Z,8.07
2022-09-22T20:32:34.676Z,10.93
2022-09-22T20:37:39.333Z,8.50
2022-09-22T20:42:43.955Z,9.63
2022-09-22T20:47:46.597Z,12.00
2022-09-22T20:52:49.045Z,11.98
2022-09-22T20:57:53.115Z,13.18
2022-09-22T21:03:00.362Z,15.10
2022-09-22T21:08:17.182Z,11.52
2022-09-22T21:13:21.209Z,10.80
2022-09-22T21:18:26.468Z,11.75
2022-09-22T21:23:29.123Z,11.95
2022-09-22T21:28:33.414Z,14.55
2022-09-22T21:33:37.329Z,12.60
2022-09-22T21:38:39.873Z,14.38
2022-09-22T21:43:43.732Z,13.30
2022-09-22T21:48:46.304Z,13.85
2022-09-22T21:53:49.606Z,14.48
2022-09-22T21:58:54.154Z,14.75
2022-09-22T22:03:57.618Z,16.13
2022-09-22T22:09:02.331Z,15.32
2022-09-22T22:14:07.919Z,13.75
2022-09-22T22:19:11.503Z,13.35
2022-09-22T22:29:38.596Z,18.83
2022-09-22T22:34:41.169Z,16.10
2022-09-22T22:39:43.652Z,16.80
2022-09-22T22:44:47.476Z,17.80
2022-09-22T22:49:49.850Z,20.77
2022-09-22T22:54:52.641Z,19.85
2022-09-22T22:59:57.074Z,19.40
2022-09-22T23:05:01.031Z,18.00
2022-09-22T23:10:07.122Z,20.95
2022-09-22T23:15:11.206Z,21.27
2022-09-22T23:20:15.386Z,21.17
2022-09-22T23:25:18.091Z,21.42
2022-09-22T23:30:22.893Z,20.47
2022-09-22T23:35:26.460Z,19.60
2022-09-22T23:45:35.088Z,18.27
2022-09-22T23:50:37.519Z,17.40
2022-09-22T23:55:39.926Z,15.52
